Time;durP1;ratioP1;P1;durP2;ratioP2;P2;SDS_P1;SDS_P2;PMS_P1;PMS_P2;Temp;Humidity;BMP_temperature;BMP_pressure;BME280_temperature;BME280_humidity;BME280_pressure;Samples;Min_cycle;Max_cycle;Signal;HPM_P1;HPM_P2
2022/06/03 00:02:21;;;;;;;1999.90;999.90;;;19.80;99.90;;;;;;4976213;28;20026;-78
2022/06/03 00:05:04;;;;;;;1999.90;999.90;;;19.80;99.90;;;;;;4976554;28;20066;-78
2022/06/03 00:08:10;;;;;;;1999.90;999.90;;;19.80;99.90;;;;;;4975246;28;20063;-77
2022/06/03 00:11:09;;;;;;;1999.90;999.90;;;19.80;99.90;;;;;;4975969;28;20097;-77
2022/06/03 00:13:49;;;;;;;1999.90;999.90;;;19.80;99.90;;;;;;4976271;28;20379;-78
2022/06/03 00:16:35;;;;;;;1999.90;999.90;;;19.90;99.90;;;;;;4958383;28;20034;-78
2022/06/03 00:19:29;;;;;;;1999.90;999.90;;;19.90;99.90;;;;;;4961561;28;20027;-78
2022/06/03 00:22:09;;;;;;;1999.90;999.90;;;19.80;99.90;;;;;;4975541;28;20034;-77
2022/06/03 00:24:59;;;;;;;1999.90;999.90;;;19.80;99.90;;;;;;4975836;28;20051;-78
2022/06/03 00:27:52;;;;;;;1999.90;999.90;;;19.80;99.90;;;;;;4975339;28;20031;-78
2022/06/03 00:30:27;;;;;;;;;;;19.80;99.90;;;;;;4975940;28;20023;-78
2022/06/03 00:33:12;;;;;;;1999.90;999.90;;;19.80;99.90;;;;;;4975969;28;19906;-77
2022/06/03 00:36:05;;;;;;;1999.90;999.90;;;19.70;99.90;;;;;;4955693;28;20396;-77
2022/06/03 00:38:48;;;;;;;1999.90;999.90;;;19.80;99.90;;;;;;4972064;28;20023;-77
2022/06/03 00:41:20;;;;;;;1999.90;999.90;;;19.70;99.90;;;;;;4975069;28;20391;-78
2022/06/03 00:43:56;;;;;;;1999.90;999.90;;;19.70;99.90;;;;;;4973932;28;20041;-77
2022/06/03 00:46:36;;;;;;;1999.90;999.90;;;19.70;99.90;;;;;;4970039;28;20037;-78
2022/06/03 00:49:33;;;;;;;1999.90;999.90;;;19.60;99.90;;;;;;4975686;28;20038;-77
2022/06/03 00:52:17;;;;;;;1999.90;999.90;;;19.60;99.90;;;;;;4947784;28;20034;-77
2022/06/03 00:54:58;;;;;;;1999.90;999.90;;;19.50;99.90;;;;;;4937321;29;20475;-78
2022/06/03 00:57:27;;;;;;;1999.90;999.90;;;19.50;99.90;;;;;;4965284;28;20022;-78
2022/06/03 01:00:08;;;;;;;1999.90;999.90;;;19.50;99.90;;;;;;4975571;28;20030;-78
2022/06/03 01:02:50;;;;;;;1999.90;999.90;;;19.50;99.90;;;;;;4975341;28;20460;-78
2022/06/03 01:05:33;;;;;;;1999.90;999.90;;;19.40;99.90;;;;;;4975006;28;20505;-76
2022/06/03 01:08:18;;;;;;;1999.90;999.90;;;19.40;99.90;;;;;;4975262;28;20023;-77
2022/06/03 01:11:20;;;;;;;1999.90;999.90;;;19.30;99.90;;;;;;4970469;28;20051;-77
2022/06/03 01:14:23;;;;;;;1999.90;999.90;;;19.30;99.90;;;;;;4969318;28;20063;-78
2022/06/03 01:17:30;;;;;;;1999.90;999.90;;;19.30;99.90;;;;;;4964091;28;20033;-78
2022/06/03 01:20:18;;;;;;;1999.90;999.90;;;19.20;99.90;;;;;;4876945;29;20040;-78
2022/06/03 01:22:59;;;;;;;1999.90;999.90;;;19.30;99.90;;;;;;4952536;28;20105;-77
2022/06/03 01:25:55;;;;;;;1999.90;999.90;;;19.30;99.90;;;;;;4974897;28;20031;-78
2022/06/03 01:28:24;;;;;;;1999.90;999.90;;;19.20;99.90;;;;;;4974641;28;20505;-78
2022/06/03 01:31:18;;;;;;;1999.90;999.90;;;19.20;99.90;;;;;;4974866;28;20437;-75
2022/06/03 01:33:55;;;;;;;1999.90;999.90;;;19.20;99.90;;;;;;4967210;28;20031;-78
2022/06/03 01:36:42;;;;;;;1999.90;999.90;;;19.20;99.90;;;;;;4959997;28;20529;-77
2022/06/03 01:39:38;;;;;;;1999.90;999.90;;;19.20;99.90;;;;;;4970858;28;20037;-78
2022/06/03 01:42:15;;;;;;;1999.90;999.90;;;19.20;99.90;;;;;;4974652;28;20026;-78
2022/06/03 01:45:00;;;;;;;1999.90;999.90;;;19.20;99.90;;;;;;4972825;28;20031;-78
2022/06/03 01:47:58;;;;;;;1999.90;999.90;;;19.10;99.90;;;;;;4968860;28;20476;-78
2022/06/03 01:50:45;;;;;;;1999.90;999.90;;;19.10;99.90;;;;;;4963596;28;20027;-76
2022/06/03 01:53:32;;;;;;;1999.90;999.90;;;19.10;99.90;;;;;;4974755;28;20015;-76
2022/06/03 01:56:07;;;;;;;1999.90;999.90;;;19.10;99.90;;;;;;4949920;28;20063;-73
2022/06/03 01:58:54;;;;;;;1999.90;999.90;;;19.10;99.90;;;;;;4970601;28;20038;-76
2022/06/03 02:01:41;;;;;;;1999.90;999.90;;;19.10;99.90;;;;;;4974239;28;20031;-76
2022/06/03 02:04:33;;;;;;;1999.90;999.90;;;19.10;99.90;;;;;;4973870;28;20035;-76
2022/06/03 02:07:08;;;;;;;1999.90;999.90;;;19.10;99.90;;;;;;4973871;28;20037;-76
2022/06/03 02:09:52;;;;;;;1999.90;999.90;;;19.10;99.90;;;;;;4974193;28;20019;-76
2022/06/03 02:12:17;;;;;;;1999.90;999.90;;;19.10;99.90;;;;;;4950714;29;20035;-76
2022/06/03 02:15:09;;;;;;;1999.90;999.90;;;19.10;99.90;;;;;;4959213;28;20509;-76
2022/06/03 02:17:53;;;;;;;1999.90;999.90;;;19.00;99.90;;;;;;4954234;28;20510;-76
2022/06/03 02:21:18;;;;;;;1999.90;999.90;;;19.00;99.90;;;;;;4973558;28;20398;-76
2022/06/03 02:24:02;;;;;;;1999.90;999.90;;;19.00;99.90;;;;;;4857265;29;20091;-76
2022/06/03 02:26:54;;;;;;;1999.90;999.90;;;18.90;99.90;;;;;;4865965;29;20112;-76
2022/06/03 02:32:59;;;;;;;1999.90;999.90;;;19.00;99.90;;;;;;4863595;29;20245;-76
2022/06/03 02:35:52;;;;;;;1999.90;999.90;;;18.90;99.90;;;;;;4865712;29;20034;-76
2022/06/03 02:38:36;;;;;;;1999.90;999.90;;;18.90;99.90;;;;;;4874096;29;20032;-76
2022/06/03 02:41:32;;;;;;;1999.90;999.90;;;18.90;99.90;;;;;;4876505;29;20040;-76
2022/06/03 02:44:07;;;;;;;1999.90;999.90;;;18.90;99.90;;;;;;4875969;29;20037;-76
2022/06/03 02:47:13;;;;;;;1999.90;999.90;;;19.00;99.90;;;;;;4868140;29;20429;-76
2022/06/03 02:50:16;;;;;;;1999.90;999.90;;;19.00;99.90;;;;;;4860493;29;20034;-76
2022/06/03 02:53:00;;;;;;;1999.90;999.90;;;19.00;99.90;;;;;;4874573;29;20060;-76
2022/06/03 02:55:32;;;;;;;1999.90;999.90;;;19.00;99.90;;;;;;4939547;29;20043;-75
2022/06/03 02:58:15;;;;;;;1999.90;999.90;;;19.10;99.90;;;;;;4950749;29;20398;-76
2022/06/03 03:01:18;;;;;;;1999.90;999.90;;;19.10;99.90;;;;;;4953555;29;20506;-76
2022/06/03 03:04:25;;;;;;;1999.90;999.90;;;19.10;99.90;;;;;;4954422;29;20035;-76
2022/06/03 03:07:31;;;;;;;1999.90;999.90;;;19.10;99.90;;;;;;4912478;29;20051;-76
2022/06/03 03:10:19;;;;;;;1999.90;999.90;;;19.10;99.90;;;;;;4953128;28;20033;-76
2022/06/03 03:13:02;;;;;;;1999.90;999.90;;;19.10;99.90;;;;;;4954466;29;20230;-76
2022/06/03 03:15:53;;;;;;;1999.90;999.90;;;19.10;99.90;;;;;;4944629;29;20108;-76
2022/06/03 03:18:37;;;;;;;1999.90;999.90;;;19.10;99.90;;;;;;4950029;28;20422;-76
2022/06/03 03:21:38;;;;;;;1999.90;999.90;;;19.10;99.90;;;;;;4953873;29;20027;-76
2022/06/03 03:24:18;;;;;;;1999.90;999.90;;;19.10;99.90;;;;;;4961417;28;20062;-76
2022/06/03 03:26:52;;;;;;;1999.90;999.90;;;19.00;99.90;;;;;;4973282;28;20027;-76
2022/06/03 03:29:36;;;;;;;1999.90;999.90;;;18.80;99.90;;;;;;4955832;28;20027;-76
2022/06/03 03:32:44;;;;;;;1999.90;999.90;;;18.70;99.90;;;;;;4973072;28;20494;-76
2022/06/03 03:35:15;;;;;;;1999.90;999.90;;;18.50;99.90;;;;;;4969482;28;20019;-75
2022/06/03 03:38:05;;;;;;;1999.90;999.90;;;18.30;99.90;;;;;;4968306;28;20030;-75
2022/06/03 03:40:56;;;;;;;1999.90;999.90;;;18.10;99.90;;;;;;4973087;28;20062;-75
2022/06/03 03:43:45;;;;;;;1999.90;999.90;;;18.10;99.90;;;;;;4972355;28;20027;-75
2022/06/03 03:46:29;;;;;;;1999.90;999.90;;;18.00;99.90;;;;;;4968313;28;20478;-75
2022/06/03 03:49:12;;;;;;;1999.90;999.90;;;17.90;99.90;;;;;;4973008;28;20490;-75
2022/06/03 03:51:59;;;;;;;1999.90;999.90;;;18.00;99.90;;;;;;4946533;28;20054;-75
2022/06/03 03:54:48;;;;;;;1999.90;999.90;;;18.10;99.90;;;;;;4970104;28;20027;-75
2022/06/03 03:57:37;;;;;;;1999.90;999.90;;;18.10;99.90;;;;;;4964115;28;20027;-75
2022/06/03 04:00:25;;;;;;;1999.90;999.90;;;18.10;99.90;;;;;;4975772;28;20023;-75
2022/06/03 04:03:05;;;;;;;1999.90;999.90;;;18.20;99.90;;;;;;4976319;28;20082;-75
2022/06/03 04:06:07;;;;;;;1999.90;999.90;;;18.30;99.90;;;;;;4976129;28;20027;-75
2022/06/03 04:08:51;;;;;;;1999.90;999.90;;;18.20;99.90;;;;;;4976143;28;20031;-75
2022/06/03 04:11:25;;;;;;;1999.90;999.90;;;17.80;99.90;;;;;;4972745;28;20031;-74
2022/06/03 04:14:27;;;;;;;1999.90;999.90;;;17.70;99.90;;;;;;4973236;28;20027;-74
2022/06/03 04:17:11;;;;;;;1999.90;999.90;;;17.60;99.90;;;;;;4967650;28;20031;-75
2022/06/03 04:20:05;;;;;;;1999.90;999.90;;;17.30;99.90;;;;;;4964027;28;20110;-74
2022/06/03 04:23:07;;;;;;;1999.90;999.90;;;17.10;99.90;;;;;;4965880;28;20023;-75
2022/06/03 04:25:36;;;;;;;1999.90;999.90;;;16.80;99.90;;;;;;4975659;28;20050;-75
2022/06/03 04:28:22;;;;;;;1999.90;999.90;;;16.60;99.90;;;;;;4975714;28;20397;-75
2022/06/03 04:31:21;;;;;;;1999.90;999.90;;;16.60;99.90;;;;;;4975948;28;20051;-75
2022/06/03 04:34:02;;;;;;;1999.90;999.90;;;16.50;99.90;;;;;;4975876;28;20477;-75
2022/06/03 04:36:27;;;;;;;1999.90;999.90;;;16.40;99.90;;;;;;4973057;28;20362;-75
2022/06/03 04:39:26;;;;;;;1999.90;999.90;;;16.50;99.90;;;;;;4966037;28;20042;-75
2022/06/03 04:41:55;;;;;;;1999.90;999.90;;;16.60;99.90;;;;;;4975958;28;20498;-75
2022/06/03 04:44:39;;;;;;;1999.90;999.90;;;16.60;99.90;;;;;;4956788;28;20442;-75
2022/06/03 04:47:21;;;;;;;1999.90;999.90;;;16.60;99.90;;;;;;4969727;28;20027;-75
2022/06/03 04:50:06;;;;;;;1999.90;999.90;;;16.70;99.90;;;;;;4975822;28;20023;-75
2022/06/03 04:53:08;;;;;;;1999.90;999.90;;;16.80;99.90;;;;;;4974348;28;20018;-75
2022/06/03 04:56:08;;;;;;;1999.90;999.90;;;16.80;99.90;;;;;;4968711;28;20023;-75
2022/06/03 04:59:11;;;;;;;1999.90;999.90;;;16.90;99.90;;;;;;4959110;28;20063;-75
2022/06/03 05:02:08;;;;;;;1999.90;999.90;;;17.00;99.90;;;;;;4957218;28;20034;-75
2022/06/03 05:04:43;;;;;;;1999.90;999.90;;;17.10;99.90;;;;;;4974836;28;20501;-75
2022/06/03 05:07:48;;;;;;;1999.90;999.90;;;17.10;99.90;;;;;;4957439;28;20058;-75
2022/06/03 05:10:38;;;;;;;1999.90;999.90;;;17.20;99.90;;;;;;4965409;28;20486;-75
2022/06/03 05:13:37;;;;;;;1999.90;999.90;;;17.20;99.90;;;;;;4957830;28;20027;-75
2022/06/03 05:16:42;;;;;;;1999.90;999.90;;;17.20;99.90;;;;;;4963936;28;20027;-76
2022/06/03 05:19:29;;;;;;;1999.90;999.90;;;17.00;99.90;;;;;;4971099;28;20026;-76
2022/06/03 05:22:23;;;;;;;1999.90;999.90;;;17.00;99.90;;;;;;4973793;28;20482;-76
2022/06/03 05:25:18;;;;;;;1999.90;999.90;;;17.00;99.90;;;;;;4957669;28;20137;-75
2022/06/03 05:27:44;;;;;;;1999.90;999.90;;;16.90;99.90;;;;;;4973989;28;20034;-75
2022/06/03 05:30:12;;;;;;;1999.90;999.90;;;16.90;99.90;;;;;;4974551;28;20035;-76
2022/06/03 05:32:44;;;;;;;1999.90;999.90;;;16.90;99.90;;;;;;4974586;28;20505;-77
2022/06/03 05:35:35;;;;;;;1999.90;999.90;;;17.00;99.90;;;;;;4973249;28;20031;-78
2022/06/03 05:38:29;;;;;;;1999.90;999.90;;;17.10;99.90;;;;;;4949340;28;20019;-76
2022/06/03 05:42:23;;;;;;;1999.90;999.90;;;17.20;99.90;;;;;;4973516;28;20042;-76
2022/06/03 05:44:10;;;;;;;1999.90;999.90;;;17.30;99.90;;;;;;4972449;28;20037;-76
2022/06/03 05:46:43;;;;;;;1999.90;999.90;;;17.40;99.90;;;;;;4962124;28;20501;-76
2022/06/03 05:49:09;;;;;;;1999.90;999.90;;;17.50;99.90;;;;;;4957189;28;20023;-74
2022/06/03 05:51:38;;;;;;;1999.90;999.90;;;17.60;99.90;;;;;;4956265;28;20482;-76
2022/06/03 05:54:17;;;;;;;1999.90;999.90;;;17.70;99.90;;;;;;4937968;28;20039;-76
2022/06/03 05:57:05;;;;;;;1999.90;999.90;;;17.80;99.90;;;;;;4965525;28;20065;-76
2022/06/03 05:59:59;;;;;;;1999.90;999.90;;;17.90;99.90;;;;;;4958156;28;20519;-76
2022/06/03 06:02:34;;;;;;;1999.90;999.90;;;18.10;99.90;;;;;;4951442;28;20117;-76
2022/06/03 06:05:29;;;;;;;1999.90;999.90;;;18.30;99.90;;;;;;4959124;28;20070;-76
2022/06/03 06:08:07;;;;;;;1999.90;999.90;;;18.30;99.90;;;;;;4942457;28;20396;-76
2022/06/03 06:10:42;;;;;;;1999.90;999.90;;;18.30;99.90;;;;;;4969199;28;20019;-76
2022/06/03 06:13:25;;;;;;;1999.90;999.90;;;18.20;99.90;;;;;;4965302;28;20042;-76
2022/06/03 06:16:17;;;;;;;1999.90;999.90;;;18.20;99.90;;;;;;4950904;28;20054;-76
2022/06/03 06:18:58;;;;;;;1999.90;999.90;;;18.10;99.90;;;;;;4965066;28;20478;-76
2022/06/03 06:21:46;;;;;;;1999.90;999.90;;;18.00;99.90;;;;;;4958417;28;20054;-76
2022/06/03 06:24:17;;;;;;;1999.90;999.90;;;18.10;99.90;;;;;;4960014;28;20054;-76
2022/06/03 06:27:21;;;;;;;1999.90;999.90;;;18.10;99.90;;;;;;4950613;28;20077;-76
2022/06/03 06:29:58;;;;;;;1999.90;999.90;;;18.20;99.90;;;;;;4958187;28;20028;-76
2022/06/03 06:32:58;;;;;;;1999.90;999.90;;;18.30;99.90;;;;;;4968384;28;20023;-76
2022/06/03 06:35:56;;;;;;;1999.90;999.90;;;18.50;99.90;;;;;;4953978;28;20081;-78
2022/06/03 06:38:58;;;;;;;1999.90;999.90;;;18.70;99.90;;;;;;4912019;28;20032;-80
2022/06/03 06:41:43;;;;;;;1999.90;999.90;;;18.80;99.90;;;;;;4970414;28;20031;-79
2022/06/03 06:44:20;;;;;;;1999.90;999.90;;;18.90;99.90;;;;;;4970614;28;20031;-80
2022/06/03 06:46:57;;;;;;;1999.90;999.90;;;19.00;99.90;;;;;;4963635;28;20026;-79
2022/06/03 06:49:32;;;;;;;1999.90;999.90;;;19.10;99.90;;;;;;4950736;28;20155;-79
2022/06/03 06:52:06;;;;;;;1999.90;999.90;;;19.10;99.90;;;;;;4953151;28;20121;-76
2022/06/03 06:55:06;;;;;;;1999.90;999.90;;;19.20;99.90;;;;;;4957061;28;20031;-79
2022/06/03 06:57:40;;;;;;;1999.90;999.90;;;19.40;99.90;;;;;;4956391;28;20020;-78
2022/06/03 07:00:17;;;;;;;1999.90;999.90;;;19.60;99.90;;;;;;4961672;28;20030;-77
2022/06/03 07:02:50;;;;;;;1999.90;999.90;;;19.90;99.90;;;;;;4949879;28;20396;-80
2022/06/03 07:05:25;;;;;;;1999.90;999.90;;;20.00;99.90;;;;;;4957691;28;20076;-79
2022/06/03 07:08:01;;;;;;;1999.90;999.90;;;20.20;99.90;;;;;;4957877;28;20053;-82
2022/06/03 07:10:35;;;;;;;1999.90;999.90;;;20.40;99.90;;;;;;4939165;28;20154;-79
2022/06/03 07:13:18;;;;;;;1999.90;999.90;;;20.50;99.90;;;;;;4951946;28;20031;-81
2022/06/03 07:15:50;;;;;;;1999.90;999.90;;;20.30;99.90;;;;;;4943346;28;20165;-78
2022/06/03 07:21:51;;;;;;;1999.90;999.90;;;20.60;99.90;;;;;;4950564;28;20046;-79
2022/06/03 07:24:32;;;;;;;1999.90;999.90;;;20.50;99.90;;;;;;4943250;28;20086;-78
2022/06/03 07:27:06;;;;;;;1999.90;999.90;;;20.40;99.90;;;;;;4951741;28;20043;-79
2022/06/03 07:29:48;;;;;;;1999.90;999.90;;;20.20;99.90;;;;;;4952215;29;20040;-76
2022/06/03 07:32:25;;;;;;;1999.90;999.90;;;20.10;99.90;;;;;;4954685;29;20398;-77
2022/06/03 07:35:02;;;;;;;1999.90;999.90;;;19.90;99.90;;;;;;4954421;29;20030;-78
2022/06/03 07:38:15;;;;;;;1999.90;999.90;;;19.90;99.90;;;;;;4948427;29;20421;-80
2022/06/03 07:40:55;;;;;;;1999.90;999.90;;;19.80;99.90;;;;;;4860440;29;20124;-78
2022/06/03 07:43:44;;;;;;;1999.90;999.90;;;19.60;99.90;;;;;;4881748;29;20456;-78
2022/06/03 07:46:42;;;;;;;1999.90;999.90;;;19.50;99.90;;;;;;4876188;29;20147;-80
2022/06/03 07:49:09;;;;;;;1999.90;999.90;;;19.50;99.90;;;;;;4828414;29;20809;-81
2022/06/03 07:51:42;;;;;;;1999.90;999.90;;;19.50;99.90;;;;;;4878334;29;20044;-80
2022/06/03 07:54:25;;;;;;;1999.90;999.90;;;19.40;99.90;;;;;;4885537;29;20091;-79
2022/06/03 07:57:10;;;;;;;1999.90;999.90;;;19.40;99.90;;;;;;4877643;29;20049;-79
2022/06/03 07:59:40;;;;;;;1999.90;999.90;;;19.50;99.90;;;;;;4878024;29;20041;-79
2022/06/03 08:02:11;;;;;;;1999.90;999.90;;;19.40;99.90;;;;;;4879422;29;20052;-78
2022/06/03 08:04:38;;;;;;;1999.90;999.90;;;19.30;99.90;;;;;;4877518;29;20081;-79
2022/06/03 08:12:58;;;;;;;1999.90;999.90;;;19.20;99.90;;;;;;4873280;29;20053;-78
2022/06/03 08:15:29;;;;;;;1999.90;999.90;;;19.10;99.90;;;;;;4945176;28;20039;-79
2022/06/03 08:17:55;;;;;;;1999.90;999.90;;;19.10;99.90;;;;;;4961082;28;20031;-79
2022/06/03 08:20:24;;;;;;;1999.90;999.90;;;19.10;99.90;;;;;;4959812;28;20026;-82
2022/06/03 08:22:50;;;;;;;1999.90;999.90;;;19.00;99.90;;;;;;4941942;28;20038;-83
2022/06/03 08:25:31;;;;;;;1999.90;999.90;;;19.00;99.90;;;;;;4953429;28;20106;-82
2022/06/03 08:27:59;;;;;;;1999.90;999.90;;;19.00;99.90;;;;;;4951374;28;20035;-84
2022/06/03 08:30:28;;;;;;;1999.90;999.90;;;19.00;99.90;;;;;;4939669;28;20054;-81
2022/06/03 08:33:05;;;;;;;1999.90;999.90;;;19.00;99.90;;;;;;4954379;28;20502;-76
2022/06/03 08:35:38;;;;;;;1999.90;999.90;;;19.00;99.90;;;;;;4951144;28;20024;-76
2022/06/03 08:38:24;;;;;;;1999.90;999.90;;;19.00;99.90;;;;;;4955410;28;20107;-76
2022/06/03 08:41:01;;;;;;;1999.90;999.90;;;18.90;99.90;;;;;;4942494;29;20035;-74
2022/06/03 08:43:48;;;;;;;1999.90;999.90;;;18.90;99.90;;;;;;4956134;28;20521;-74
2022/06/03 08:46:24;;;;;;;1999.90;999.90;;;18.80;99.90;;;;;;4950817;28;20549;-74
2022/06/03 08:48:52;;;;;;;1999.90;999.90;;;18.90;99.90;;;;;;4953244;28;20054;-75
2022/06/03 08:51:23;;;;;;;1999.90;999.90;;;18.90;99.90;;;;;;4954073;28;20043;-75
2022/06/03 08:53:55;;;;;;;1999.90;999.90;;;19.00;99.90;;;;;;4955652;28;20105;-75
2022/06/03 08:56:25;;;;;;;1999.90;999.90;;;19.00;99.90;;;;;;4956975;28;20102;-75
2022/06/03 08:58:58;;;;;;;1999.90;999.90;;;19.10;99.90;;;;;;4953872;28;20049;-79
2022/06/03 09:01:39;;;;;;;1999.90;999.90;;;19.10;99.90;;;;;;4954115;28;20035;-77
2022/06/03 09:04:22;;;;;;;1999.90;999.90;;;19.20;99.90;;;;;;4952740;28;20039;-77
2022/06/03 09:07:33;;;;;;;1999.90;999.90;;;19.50;99.90;;;;;;4954266;28;20027;-77
2022/06/03 09:10:26;;;;;;;1999.90;999.90;;;22.70;99.90;;;;;;4937620;28;20044;-77
2022/06/03 09:13:03;;;;;;;1999.90;999.90;;;24.20;99.90;;;;;;4949254;28;20406;-78
2022/06/03 09:15:36;;;;;;;1999.90;999.90;;;24.00;99.90;;;;;;4951199;28;20106;-77
2022/06/03 09:18:25;;;;;;;1999.90;999.90;;;23.40;99.90;;;;;;4957153;28;20494;-78
2022/06/03 09:21:09;;;;;;;1999.90;999.90;;;23.90;99.90;;;;;;4952252;28;20589;-78
2022/06/03 09:24:01;;;;;;;1999.90;999.90;;;25.90;99.90;;;;;;4954073;28;20118;-78
2022/06/03 09:26:36;;;;;;;1999.90;999.90;;;29.30;99.90;;;;;;4954975;28;20425;-78
2022/06/03 09:29:06;;;;;;;1999.90;999.90;;;29.90;99.90;;;;;;4952968;28;20039;-77
2022/06/03 09:31:35;;;;;;;1999.90;999.90;;;28.80;99.90;;;;;;4952809;28;20167;-76
2022/06/03 09:34:01;;;;;;;1999.90;999.90;;;28.70;99.90;;;;;;4958307;28;20042;-76
2022/06/03 09:36:32;;;;;;;1999.90;999.90;;;29.20;99.90;;;;;;4957464;28;20123;-76
2022/06/03 09:39:02;;;;;;;1999.90;999.90;;;30.30;99.90;;;;;;4961374;28;20441;-76
2022/06/03 09:41:32;;;;;;;1999.90;999.90;;;30.40;99.30;;;;;;4954980;28;20028;-76
2022/06/03 09:44:02;;;;;;;1999.90;999.90;;;29.20;98.70;;;;;;4954001;28;20476;-75
2022/06/03 09:46:30;;;;;;;1999.90;999.90;;;30.50;98.30;;;;;;4939582;28;20027;-73
2022/06/03 09:48:57;;;;;;;1999.90;999.90;;;31.60;95.90;;;;;;4953723;28;20106;-73
2022/06/03 09:51:55;;;;;;;1999.90;999.90;;;32.40;93.60;;;;;;4952056;28;20031;-75
2022/06/03 09:54:19;;;;;;;1999.90;999.90;;;32.70;92.90;;;;;;4953337;28;20024;-74
2022/06/03 09:56:50;;;;;;;1999.90;999.90;;;32.70;91.90;;;;;;4953721;28;20507;-72
2022/06/03 09:59:17;;;;;;;1999.90;999.90;;;32.20;92.20;;;;;;4953497;28;20027;-73
2022/06/03 10:01:43;;;;;;;1999.90;999.90;;;32.60;91.80;;;;;;4952333;28;20027;-73
2022/06/03 10:04:09;;;;;;;1999.90;999.90;;;32.70;93.10;;;;;;4952277;28;20046;-73
2022/06/03 10:06:46;;;;;;;1999.90;999.90;;;33.30;92.20;;;;;;4950656;28;20509;-73
2022/06/03 10:15:37;;;;;;;1999.90;999.90;;;32.40;90.00;;;;;;4953315;28;20086;-73
2022/06/03 10:17:31;;;;;;;1999.90;999.90;;;31.90;91.20;;;;;;4955163;28;20122;-73
2022/06/03 10:19:57;;;;;;;1999.90;999.90;;;32.60;91.20;;;;;;4957992;28;20443;-73
2022/06/03 10:22:24;;;;;;;1999.90;999.90;;;33.00;90.60;;;;;;4952388;28;20133;-73
2022/06/03 10:24:49;;;;;;;1999.90;999.90;;;32.50;91.00;;;;;;4951919;28;20152;-73
2022/06/03 10:27:18;;;;;;;1999.90;999.90;;;32.10;90.60;;;;;;4959583;28;20162;-73
2022/06/03 10:29:50;;;;;;;1999.90;999.90;;;32.20;90.80;;;;;;4960487;28;20064;-74
2022/06/03 10:32:19;;;;;;;1999.90;999.90;;;32.40;90.40;;;;;;4956624;28;20036;-75
2022/06/03 10:34:45;;;;;;;1999.90;999.90;;;31.60;91.60;;;;;;4958667;28;20039;-77
2022/06/03 10:37:24;;;;;;;1999.90;999.90;;;31.30;91.50;;;;;;4939105;29;20062;-75
2022/06/03 10:39:55;;;;;;;1999.90;999.90;;;31.40;91.30;;;;;;4939444;28;20454;-75
2022/06/03 10:42:22;;;;;;;1999.90;999.90;;;31.40;92.00;;;;;;4950914;28;20035;-75
2022/06/03 10:44:54;;;;;;;1999.90;999.90;;;31.60;91.70;;;;;;4934145;28;20186;-75
2022/06/03 10:47:31;;;;;;;1999.90;999.90;;;31.80;91.70;;;;;;4953481;28;20042;-75
2022/06/03 10:49:59;;;;;;;1999.90;999.90;;;32.30;91.40;;;;;;4952948;28;20039;-76
2022/06/03 11:03:31;;;;;;;1999.90;999.90;;;32.20;87.70;;;;;;4952622;28;20073;-75
2022/06/03 11:06:03;;;;;;;1999.90;999.90;;;31.60;89.90;;;;;;4953818;28;20502;-77
2022/06/03 11:09:06;;;;;;;1999.90;999.90;;;31.90;89.00;;;;;;4952188;28;20425;-76
2022/06/03 11:11:48;;;;;;;1999.90;999.90;;;32.90;87.00;;;;;;4953665;28;20398;-76
2022/06/03 11:14:41;;;;;;;1999.90;999.90;;;33.10;86.70;;;;;;4952891;28;20399;-76
2022/06/03 11:17:06;;;;;;;;;;;32.60;87.90;;;;;;4954689;29;20039;-76
2022/06/03 11:19:37;;;;;;;1999.90;999.90;;;33.00;88.10;;;;;;4937257;29;19918;-76
2022/06/03 11:22:14;;;;;;;1999.90;999.90;;;32.00;88.60;;;;;;4953488;28;20454;-75
2022/06/03 11:24:40;;;;;;;1999.90;999.90;;;30.90;89.50;;;;;;4949544;29;20529;-77
2022/06/03 11:27:10;;;;;;;1999.90;999.90;;;30.60;90.20;;;;;;4954773;28;20143;-76
2022/06/03 11:29:39;;;;;;;1999.90;999.90;;;30.90;90.60;;;;;;4953380;28;20031;-77
2022/06/03 11:32:09;;;;;;;1999.90;999.90;;;30.80;90.60;;;;;;4953380;29;20035;-77
2022/06/03 11:34:40;;;;;;;1999.90;999.90;;;31.10;90.20;;;;;;4943353;28;20070;-77
2022/06/03 11:37:11;;;;;;;1999.90;999.90;;;30.60;90.00;;;;;;4955469;28;20083;-77
2022/06/03 11:39:46;;;;;;;1999.90;999.90;;;30.90;90.50;;;;;;4954508;28;20031;-77
2022/06/03 11:42:15;;;;;;;1999.90;999.90;;;32.10;90.00;;;;;;4953068;29;20027;-78
2022/06/03 11:44:53;;;;;;;1999.90;999.90;;;32.10;88.80;;;;;;4943245;29;20031;-78
2022/06/03 11:48:05;;;;;;;1999.90;999.90;;;31.60;88.10;;;;;;4949394;28;20105;-78
2022/06/03 11:50:31;;;;;;;1999.90;999.90;;;32.10;88.90;;;;;;4949613;29;20051;-77
2022/06/03 11:52:58;;;;;;;1999.90;999.90;;;31.60;88.20;;;;;;4954490;29;20337;-77
2022/06/03 11:55:27;;;;;;;1999.90;999.90;;;31.80;88.50;;;;;;4954594;29;20027;-75
2022/06/03 11:58:00;;;;;;;1999.90;999.90;;;31.90;89.10;;;;;;4950038;29;20035;-76
2022/06/03 12:00:28;;;;;;;1999.90;999.90;;;31.10;89.70;;;;;;4954132;29;20031;-76
2022/06/03 12:03:24;;;;;;;1999.90;999.90;;;29.80;90.70;;;;;;4953701;29;20031;-76
2022/06/03 12:05:56;;;;;;;1999.90;999.90;;;28.80;91.40;;;;;;4951185;28;20446;-79
2022/06/03 12:08:30;;;;;;;1999.90;999.90;;;28.10;92.70;;;;;;4951792;28;20035;-78
2022/06/03 12:11:09;;;;;;;1999.90;999.90;;;29.00;91.70;;;;;;4954668;28;20031;-77
2022/06/03 12:13:37;;;;;;;1999.90;999.90;;;29.40;91.90;;;;;;4958077;28;20087;-76
2022/06/03 12:16:10;;;;;;;1999.90;999.90;;;29.70;91.30;;;;;;4952590;28;20019;-75
2022/06/03 12:18:37;;;;;;;1999.90;999.90;;;29.80;91.30;;;;;;4936531;29;20043;-77
2022/06/03 12:21:44;;;;;;;1999.90;999.90;;;29.80;91.00;;;;;;4933696;29;20051;-74
2022/06/03 12:24:35;;;;;;;1999.90;999.90;;;29.70;91.40;;;;;;4856670;29;20187;-75
2022/06/03 12:27:04;;;;;;;1999.90;999.90;;;29.00;91.70;;;;;;4851665;29;20052;-74
2022/06/03 12:29:38;;;;;;;1999.90;999.90;;;28.60;92.10;;;;;;4856867;29;20564;-73
2022/06/03 12:32:15;;;;;;;1999.90;999.90;;;28.70;92.30;;;;;;4857270;29;20045;-76
2022/06/03 12:34:41;;;;;;;1999.90;999.90;;;28.60;92.90;;;;;;4843806;29;20478;-78
2022/06/03 12:37:29;;;;;;;1999.90;999.90;;;28.90;91.70;;;;;;4844106;29;20032;-77
2022/06/03 12:39:55;;;;;;;1999.90;999.90;;;29.40;92.00;;;;;;4861901;29;20041;-77
2022/06/03 12:42:26;;;;;;;1999.90;999.90;;;29.10;91.50;;;;;;4856277;29;20039;-77
2022/06/03 12:45:04;;;;;;;1999.90;999.90;;;28.90;91.20;;;;;;4858066;29;20045;-76
2022/06/03 12:47:33;;;;;;;1999.90;999.90;;;28.80;91.80;;;;;;4856637;29;20098;-77
2022/06/03 12:50:05;;;;;;;1999.90;999.90;;;28.80;90.50;;;;;;4856996;29;20146;-76
2022/06/03 12:52:31;;;;;;;1999.90;999.90;;;28.80;89.70;;;;;;4855629;29;20046;-77
2022/06/03 12:54:58;;;;;;;1999.90;999.90;;;28.70;89.60;;;;;;4856976;29;20113;-77
2022/06/03 12:57:36;;;;;;;1999.90;999.90;;;28.50;90.40;;;;;;4879970;29;20098;-76
2022/06/03 13:00:06;;;;;;;1999.90;999.90;;;27.80;90.50;;;;;;4951528;28;20027;-77
2022/06/03 13:02:36;;;;;;;1999.90;999.90;;;27.80;91.10;;;;;;4953281;28;20035;-79
2022/06/03 13:05:01;;;;;;;1999.90;999.90;;;27.60;90.70;;;;;;4953451;28;20027;-78
2022/06/03 13:07:27;;;;;;;1999.90;999.90;;;27.50;91.90;;;;;;4953070;28;20046;-78
2022/06/03 13:09:56;;;;;;;1999.90;999.90;;;27.40;91.00;;;;;;4953218;28;20055;-77
2022/06/03 13:12:33;;;;;;;1999.90;999.90;;;27.30;91.50;;;;;;4953153;28;20031;-77
2022/06/03 13:15:17;;;;;;;1999.90;999.90;;;27.30;91.30;;;;;;4953026;28;20081;-77
2022/06/03 13:17:55;;;;;;;1999.90;999.90;;;27.70;90.80;;;;;;4948498;28;20035;-78
2022/06/03 13:20:48;;;;;;;1999.90;999.90;;;28.00;90.50;;;;;;4952451;28;20672;-78
2022/06/03 13:23:19;;;;;;;1999.90;999.90;;;27.80;91.00;;;;;;4954094;28;20069;-77
2022/06/03 13:25:46;;;;;;;1999.90;999.90;;;27.90;90.20;;;;;;4944458;28;20047;-77
2022/06/03 13:28:34;;;;;;;1999.90;999.90;;;27.70;90.80;;;;;;4954061;28;20039;-77
2022/06/03 13:31:16;;;;;;;1999.90;999.90;;;27.90;90.30;;;;;;4951887;28;20106;-77
2022/06/03 13:34:08;;;;;;;1999.90;999.90;;;27.60;90.10;;;;;;4952779;28;20097;-78
2022/06/03 13:36:50;;;;;;;1999.90;999.90;;;27.90;90.20;;;;;;4951025;28;20019;-76
2022/06/03 13:39:28;;;;;;;1999.90;999.90;;;27.90;90.50;;;;;;4938046;29;20046;-75